Time;durP1;ratioP1;P1;durP2;ratioP2;P2;SDS_P1;SDS_P2;PMS_P1;PMS_P2;Temp;Humidity;BMP_temperature;BMP_pressure;BME280_temperature;BME280_humidity;BME280_pressure;Samples;Min_cycle;Max_cycle;Signal;HPM_P1;HPM_P2
2021/11/22 09:26:40;;;;;;;41.85;22.30;;;;;;;6.23;100.00;98832.52;2237634;79;22275;-85
2021/11/22 09:29:41;;;;;;;38.15;20.40;;;;;;;6.17;100.00;98837.49;2188422;81;21054;-81
2021/11/22 09:32:42;;;;;;;41.68;21.57;;;;;;;6.21;100.00;98844.02;2188463;81;21131;-83
2021/11/22 09:35:43;;;;;;;40.38;21.55;;;;;;;6.31;100.00;98838.73;2188351;81;21531;-85
2021/11/22 09:38:44;;;;;;;33.60;18.67;;;;;;;6.44;100.00;98839.19;2188206;81;21025;-85
2021/11/22 09:41:46;;;;;;;31.45;17.65;;;;;;;6.54;100.00;98838.62;2188329;81;21100;-80
2021/11/22 09:44:47;;;;;;;28.35;15.93;;;;;;;6.58;100.00;98841.24;2188178;81;21147;-81
2021/11/22 09:47:48;;;;;;;25.62;15.78;;;;;;;6.65;100.00;98844.88;2188327;81;21500;-87
2021/11/22 09:50:49;;;;;;;24.98;15.75;;;;;;;6.72;100.00;98839.90;2188730;81;21009;-86
2021/11/22 09:53:50;;;;;;;27.50;15.58;;;;;;;6.79;100.00;98843.05;2188185;81;21120;-85
2021/11/22 09:56:52;;;;;;;27.48;16.85;;;;;;;6.85;100.00;98844.20;2188330;81;20965;-85
2021/11/22 09:59:53;;;;;;;22.62;14.75;;;;;;;6.91;100.00;98849.30;2188182;81;21005;-83
2021/11/22 10:02:54;;;;;;;17.12;12.75;;;;;;;6.98;100.00;98851.14;2188493;81;21531;-85
2021/11/22 10:05:54;;;;;;;17.17;12.33;;;;;;;7.02;100.00;98851.64;2188228;81;21119;-85
2021/11/22 10:08:55;;;;;;;16.77;11.12;;;;;;;7.05;100.00;98856.08;2188263;81;20985;-84
2021/11/22 10:11:56;;;;;;;13.88;10.08;;;;;;;7.10;100.00;98854.30;2188466;81;21004;-85
2021/11/22 10:14:57;;;;;;;18.70;12.73;;;;;;;7.08;100.00;98849.25;2188357;81;21001;-86
2021/11/22 10:18:00;;;;;;;15.48;10.70;;;;;;;7.15;100.00;98853.36;2168725;81;21564;-84
2021/11/22 10:21:00;;;;;;;18.27;12.98;;;;;;;7.17;100.00;98851.42;2188270;81;21016;-84
2021/11/22 10:24:01;;;;;;;16.73;10.75;;;;;;;7.20;100.00;98858.91;2188118;81;20969;-84
2021/11/22 10:27:02;;;;;;;18.42;11.85;;;;;;;7.23;100.00;98854.72;2188788;81;21082;-88
2021/11/22 10:30:03;;;;;;;17.85;12.28;;;;;;;7.22;100.00;98856.14;2189485;81;20965;-85
2021/11/22 10:33:04;;;;;;;17.77;12.15;;;;;;;7.21;100.00;98851.91;2190022;81;20958;-84
2021/11/22 10:36:05;;;;;;;18.37;12.35;;;;;;;7.24;100.00;98856.83;2189336;81;20970;-87
2021/11/22 10:39:06;;;;;;;18.62;12.03;;;;;;;7.30;100.00;98858.80;2188258;81;20997;-87
2021/11/22 10:42:06;;;;;;;16.20;11.38;;;;;;;7.27;100.00;98854.72;2188334;81;21061;-88
2021/11/22 10:45:07;;;;;;;16.50;11.05;;;;;;;7.27;100.00;98866.93;2188428;81;21037;-85
2021/11/22 10:48:13;;;;;;;14.90;9.85;;;;;;;7.30;100.00;98859.61;2171942;81;21534;-87
2021/11/22 10:51:11;;;;;;;17.60;10.78;;;;;;;7.37;100.00;98873.66;2142670;83;21124;-88
2021/11/22 10:54:12;;;;;;;17.30;9.75;;;;;;;7.41;100.00;98878.91;2120426;84;21032;-87
2021/11/22 10:57:13;;;;;;;12.25;9.65;;;;;;;7.44;100.00;98881.67;2120454;84;20979;-88
2021/11/22 11:00:14;;;;;;;10.23;7.58;;;;;;;7.43;100.00;98883.14;2120550;84;21061;-88
2021/11/22 11:03:15;;;;;;;11.60;7.22;;;;;;;7.35;100.00;98876.91;2120390;84;21034;-87
2021/11/22 11:06:16;;;;;;;12.78;8.20;;;;;;;7.28;100.00;98892.81;2120472;84;21627;-87
2021/11/22 11:09:16;;;;;;;12.20;8.13;;;;;;;7.19;100.00;98880.72;2120528;84;21101;-85
2021/11/22 11:12:17;;;;;;;12.85;8.48;;;;;;;7.22;100.00;98880.40;2120630;84;21514;-87
2021/11/22 11:15:18;;;;;;;11.65;7.67;;;;;;;7.18;100.00;98879.09;2120569;84;21005;-88
2021/11/22 11:18:19;;;;;;;12.18;7.28;;;;;;;7.18;100.00;98881.69;2120949;84;21059;-84
2021/11/22 11:21:20;;;;;;;12.90;7.80;;;;;;;7.20;100.00;98878.44;2120741;84;21012;-84
2021/11/22 11:24:20;;;;;;;14.35;8.28;;;;;;;7.21;100.00;98878.77;2120124;84;21101;-86
2021/11/22 11:27:21;;;;;;;12.58;8.80;;;;;;;7.22;100.00;98889.52;2127260;84;20947;-86
2021/11/22 11:30:22;;;;;;;8.95;6.92;;;;;;;7.23;100.00;98883.85;2126681;84;21014;-86
2021/11/22 11:33:23;;;;;;;8.60;6.25;;;;;;;7.24;100.00;98889.39;2126314;84;21069;-87
2021/11/22 11:36:24;;;;;;;10.45;7.03;;;;;;;7.22;100.00;98886.09;2126229;84;21049;-87
2021/11/22 11:39:25;;;;;;;11.00;7.80;;;;;;;7.26;100.00;98892.16;2126392;84;21013;-86
2021/11/22 11:42:25;;;;;;;9.63;7.25;;;;;;;7.27;100.00;98896.40;2126405;84;21030;-86
2021/11/22 11:45:26;;;;;;;9.43;7.67;;;;;;;7.28;100.00;98891.52;2126377;84;21036;-86
2021/11/22 11:48:27;;;;;;;7.85;6.92;;;;;;;7.30;100.00;98897.87;2126296;84;21539;-85
2021/11/22 11:51:28;;;;;;;8.60;6.65;;;;;;;7.30;100.00;98892.66;2126616;84;21029;-86
2021/11/22 11:54:29;;;;;;;10.10;7.47;;;;;;;7.32;100.00;98891.55;2126782;84;21006;-86
2021/11/22 11:57:29;;;;;;;10.00;6.90;;;;;;;7.32;100.00;98899.38;2098636;84;20993;-87
2021/11/22 12:00:30;;;;;;;10.63;7.50;;;;;;;7.23;100.00;98900.78;2126611;84;21568;-86
2021/11/22 12:03:31;;;;;;;12.18;8.55;;;;;;;7.17;100.00;98903.98;2126706;84;20989;-87
2021/11/22 12:06:32;;;;;;;9.60;7.65;;;;;;;7.11;100.00;98902.31;2126812;84;21045;-87
2021/11/22 12:09:33;;;;;;;11.33;7.35;;;;;;;7.05;100.00;98906.84;2126912;84;20993;-86
2021/11/22 12:12:33;;;;;;;13.05;9.05;;;;;;;7.04;100.00;98910.87;2126291;84;22185;-86
2021/11/22 12:15:34;;;;;;;11.55;8.15;;;;;;;7.03;100.00;98915.76;2126385;84;21033;-86
2021/11/22 12:18:35;;;;;;;11.90;7.80;;;;;;;7.03;100.00;98920.48;2126507;84;20986;-86
2021/11/22 12:21:36;;;;;;;10.32;7.72;;;;;;;7.03;100.00;98920.48;2126493;84;21505;-86
2021/11/22 12:24:37;;;;;;;8.85;7.58;;;;;;;7.00;100.00;98925.19;2126574;83;21524;-86
2021/11/22 12:27:38;;;;;;;9.95;6.55;;;;;;;6.92;100.00;98928.53;2133281;83;21072;-86
2021/11/22 12:30:39;;;;;;;11.00;7.40;;;;;;;6.82;100.00;98932.53;2133298;83;21523;-86
2021/11/22 12:33:40;;;;;;;9.18;7.05;;;;;;;6.73;100.00;98935.22;2133442;83;21590;-87
2021/11/22 12:36:41;;;;;;;10.80;6.97;;;;;;;6.68;100.00;98934.37;2133292;83;21069;-86
2021/11/22 12:39:41;;;;;;;8.00;6.55;;;;;;;6.67;100.00;98941.81;2133355;83;20943;-86
2021/11/22 12:42:42;;;;;;;7.28;5.85;;;;;;;6.67;100.00;98934.02;2133322;83;21547;-86
2021/11/22 12:45:43;;;;;;;11.43;6.03;;;;;;;6.71;100.00;98935.85;2133358;83;21579;-86
2021/11/22 12:48:44;;;;;;;9.45;7.55;;;;;;;6.72;100.00;98934.39;2133543;83;21140;-86
2021/11/22 12:51:45;;;;;;;11.30;7.65;;;;;;;6.72;100.00;98938.78;2133168;83;21078;-87
2021/11/22 12:54:45;;;;;;;10.30;8.15;;;;;;;6.73;100.00;98937.81;2133196;83;21013;-87
2021/11/22 12:57:46;;;;;;;8.50;6.65;;;;;;;6.75;100.00;98937.17;2133316;83;21085;-86
2021/11/22 13:00:47;;;;;;;13.45;9.68;;;;;;;6.75;100.00;98933.27;2133253;83;21096;-86
2021/11/22 13:03:48;;;;;;;11.43;9.13;;;;;;;6.73;100.00;98942.53;2133138;83;21068;-86
2021/11/22 13:06:50;;;;;;;17.45;11.30;;;;;;;6.70;100.00;98938.94;2133284;83;21006;-87
2021/11/22 13:09:51;;;;;;;10.82;8.08;;;;;;;6.68;100.00;98944.78;2133305;83;21042;-86
2021/11/22 13:12:53;;;;;;;12.93;7.58;;;;;;;6.59;100.00;98950.88;2133640;83;21053;-86
2021/11/22 13:15:54;;;;;;;8.23;6.83;;;;;;;6.59;100.00;98950.88;2133900;83;21061;-86
2021/11/22 13:18:55;;;;;;;8.85;7.00;;;;;;;6.54;100.00;98955.70;2133153;83;21009;-86
2021/11/22 13:21:56;;;;;;;9.83;6.70;;;;;;;6.50;100.00;98958.27;2133159;83;21052;-86
2021/11/22 13:24:56;;;;;;;8.90;7.20;;;;;;;6.49;100.00;98963.11;2133413;83;21055;-86
2021/11/22 13:27:57;;;;;;;9.15;7.47;;;;;;;6.51;100.00;98962.50;2137013;83;20978;-86
2021/11/22 13:30:58;;;;;;;8.80;6.72;;;;;;;6.47;100.00;98965.86;2136805;83;21635;-86
2021/11/22 13:33:59;;;;;;;10.03;6.92;;;;;;;6.43;100.00;98955.91;2137263;83;20985;-86
2021/11/22 13:37:00;;;;;;;7.50;6.62;;;;;;;6.36;100.00;98964.78;2142929;83;21047;-86
2021/11/22 13:40:01;;;;;;;9.10;8.08;;;;;;;6.33;100.00;98965.08;2142692;83;21095;-87
2021/11/22 13:43:01;;;;;;;11.60;10.08;;;;;;;6.28;100.00;98970.70;2142855;83;22141;-86
2021/11/22 13:46:02;;;;;;;11.63;8.63;;;;;;;6.24;100.00;98969.86;2142878;83;21091;-87
2021/11/22 13:49:03;;;;;;;15.15;9.65;;;;;;;6.22;100.00;98976.98;2142876;83;20961;-87
2021/11/22 13:52:04;;;;;;;10.53;7.30;;;;;;;6.18;100.00;98974.33;2142819;83;21072;-87
2021/11/22 13:55:05;;;;;;;9.70;6.50;;;;;;;6.14;100.00;98976.89;2142945;83;20925;-87
2021/11/22 13:58:06;;;;;;;8.08;6.92;;;;;;;6.12;100.00;98980.91;2142882;83;21548;-86
2021/11/22 14:01:07;;;;;;;10.85;8.50;;;;;;;6.07;100.00;98979.73;2142705;83;20985;-86
2021/11/22 14:04:07;;;;;;;12.88;9.38;;;;;;;6.03;100.00;98992.66;2142896;83;21031;-86
2021/11/22 14:07:08;;;;;;;13.65;10.05;;;;;;;6.04;100.00;98985.23;2142906;83;21040;-87
2021/11/22 14:10:09;;;;;;;14.18;9.20;;;;;;;6.10;100.00;98995.84;2142879;83;21022;-87
2021/11/22 14:13:10;;;;;;;19.15;12.73;;;;;;;6.09;100.00;99000.71;2143392;83;21108;-87
2021/11/22 14:16:11;;;;;;;13.98;10.82;;;;;;;6.10;100.00;98998.92;2142915;83;20944;-87
2021/11/22 14:19:11;;;;;;;18.00;11.08;;;;;;;6.09;100.00;98999.41;2142930;83;20984;-86
2021/11/22 14:22:12;;;;;;;20.12;11.75;;;;;;;6.07;100.00;99000.04;2143086;83;21035;-87
2021/11/22 14:25:13;;;;;;;21.30;14.80;;;;;;;6.04;100.00;99005.53;2142471;83;21540;-86
2021/11/22 14:28:14;;;;;;;19.23;12.33;;;;;;;6.02;100.00;99004.84;2181395;81;21509;-86
2021/11/22 14:31:15;;;;;;;18.12;12.63;;;;;;;6.04;100.00;99012.52;2181156;82;21017;-87
2021/11/22 14:34:16;;;;;;;12.78;10.32;;;;;;;6.01;100.00;99015.39;2181232;82;20982;-86
2021/11/22 14:37:16;;;;;;;13.75;9.88;;;;;;;5.96;100.00;99027.52;2181105;82;21070;-86
2021/11/22 14:40:17;;;;;;;14.25;10.30;;;;;;;5.89;100.00;99022.03;2136381;83;21012;-86
2021/11/22 14:43:18;;;;;;;17.48;11.90;;;;;;;5.83;100.00;99030.88;2181259;81;21005;-87
2021/11/22 14:46:19;;;;;;;14.70;10.93;;;;;;;5.78;100.00;99036.51;2181162;82;21597;-86
2021/11/22 14:49:20;;;;;;;21.65;12.55;;;;;;;5.75;100.00;99041.97;2181070;82;20950;-86
2021/11/22 14:52:21;;;;;;;20.50;14.28;;;;;;;5.73;100.00;99039.17;2181332;82;20998;-86
2021/11/22 14:55:22;;;;;;;19.65;12.95;;;;;;;5.68;100.00;99043.03;2181211;82;20977;-86
2021/11/22 14:58:22;;;;;;;15.63;11.05;;;;;;;5.62;100.00;99039.68;2181328;81;21098;-86
2021/11/22 15:01:23;;;;;;;18.70;10.60;;;;;;;5.59;100.00;99049.06;2181093;82;21029;-86
2021/11/22 15:04:27;;;;;;;17.00;11.73;;;;;;;5.53;100.00;99049.61;2181279;82;21001;-85
2021/11/22 15:07:29;;;;;;;17.07;11.65;;;;;;;5.51;100.00;99046.82;2181197;82;21057;-86
2021/11/22 15:10:29;;;;;;;20.52;14.55;;;;;;;5.49;100.00;99053.45;2181370;82;20951;-87
2021/11/22 15:13:30;;;;;;;28.05;18.87;;;;;;;5.45;100.00;99055.98;2181216;82;20997;-86
2021/11/22 15:16:31;;;;;;;30.40;17.82;;;;;;;5.40;100.00;99053.80;2181165;82;20965;-86
2021/11/22 15:19:32;;;;;;;37.83;19.65;;;;;;;5.36;100.00;99054.20;2181371;82;20965;-86
2021/11/22 15:22:33;;;;;;;33.33;20.25;;;;;;;5.27;100.00;99066.72;2181226;82;21026;-86
2021/11/22 15:25:34;;;;;;;32.00;21.07;;;;;;;5.19;100.00;99070.47;2181582;81;21595;-87
2021/11/22 15:28:35;;;;;;;43.48;22.95;;;;;;;5.12;100.00;99079.27;2187874;81;20965;-87
2021/11/22 15:31:44;;;;;;;36.98;22.37;;;;;;;5.03;100.00;99077.48;2187769;81;21059;-87
2021/11/22 15:34:39;;;;;;;40.17;23.25;;;;;;;4.97;100.00;99081.46;2186325;81;21018;-86
2021/11/22 15:37:40;;;;;;;43.28;23.12;;;;;;;4.91;100.00;99079.39;2187982;81;21128;-85
2021/11/22 15:40:41;;;;;;;43.55;23.07;;;;;;;4.87;100.00;99078.03;2187878;81;20989;-86
2021/11/22 15:43:41;;;;;;;46.10;26.40;;;;;;;4.82;100.00;99083.61;2187783;81;20993;-86
2021/11/22 15:46:42;;;;;;;50.05;30.30;;;;;;;4.79;100.00;99081.30;2188003;81;21040;-87
2021/11/22 15:49:43;;;;;;;57.25;29.72;;;;;;;4.76;100.00;99091.95;2188016;81;21476;-87
2021/11/22 15:52:44;;;;;;;57.90;31.00;;;;;;;4.71;100.00;99091.99;2187734;81;21005;-87
2021/11/22 15:55:45;;;;;;;52.03;32.28;;;;;;;4.67;100.00;99093.23;2145923;81;21598;-89
2021/11/22 15:58:47;;;;;;;53.73;31.05;;;;;;;4.66;100.00;99094.97;2170703;81;21359;-86
2021/11/22 16:01:48;;;;;;;47.33;28.20;;;;;;;4.66;100.00;99096.75;2187755;81;21080;-86
2021/11/22 16:04:48;;;;;;;47.13;27.65;;;;;;;4.70;100.00;99095.06;2187708;81;21040;-86
2021/11/22 16:07:49;;;;;;;58.13;31.23;;;;;;;4.71;100.00;99099.78;2187691;81;21001;-86
2021/11/22 16:10:50;;;;;;;56.20;31.45;;;;;;;4.71;100.00;99108.86;2187672;81;21080;-87
2021/11/22 16:13:51;;;;;;;67.42;36.95;;;;;;;4.73;100.00;99108.24;2188014;81;21008;-86
2021/11/22 16:16:53;;;;;;;67.17;36.00;;;;;;;4.75;100.00;99116.23;2188390;81;21044;-87
2021/11/22 16:19:54;;;;;;;56.68;30.88;;;;;;;4.80;100.00;99117.14;2189065;81;20977;-86
2021/11/22 16:22:55;;;;;;;58.28;31.70;;;;;;;4.83;100.00;99121.58;2188547;81;21417;-86
2021/11/22 16:25:56;;;;;;;69.65;37.78;;;;;;;4.85;100.00;99119.70;2186218;81;21073;-87
2021/11/22 16:28:57;;;;;;;74.20;38.85;;;;;;;4.88;100.00;99124.27;2171972;81;21021;-87
2021/11/22 16:31:57;;;;;;;74.92;39.80;;;;;;;4.89;100.00;99124.13;2171402;81;21081;-85
2021/11/22 16:34:58;;;;;;;90.85;44.60;;;;;;;4.96;100.00;99131.73;2171136;81;21025;-85
2021/11/22 16:37:59;;;;;;;105.83;49.88;;;;;;;4.97;100.00;99139.86;2171776;82;21496;-86
2021/11/22 16:41:02;;;;;;;113.40;52.35;;;;;;;4.96;100.00;99143.41;2171386;81;21001;-86
2021/11/22 16:44:02;;;;;;;108.27;49.90;;;;;;;4.99;100.00;99146.20;2171368;81;21516;-86
2021/11/22 16:47:03;;;;;;;101.72;48.52;;;;;;;5.01;100.00;99141.70;2172532;81;21022;-86
2021/11/22 16:50:04;;;;;;;93.40;48.05;;;;;;;5.04;100.00;99155.72;2172515;81;21049;-87
2021/11/22 16:53:05;;;;;;;78.05;43.15;;;;;;;5.08;100.00;99157.91;2171620;81;21513;-86
2021/11/22 16:56:06;;;;;;;103.97;53.80;;;;;;;5.05;100.00;99165.97;2171487;81;21072;-86
2021/11/22 16:59:07;;;;;;;106.07;54.53;;;;;;;5.00;100.00;99165.53;2172274;82;21037;-86
2021/11/22 17:02:08;;;;;;;87.78;49.20;;;;;;;4.98;100.00;99170.04;2173670;81;21198;-85
2021/11/22 17:05:19;;;;;;;;;;;;;;;;;;;;;
2021/11/22 17:08:13;;;;;;;80.62;43.30;;;;;;;4.96;100.00;99178.44;2171126;81;21544;-86
2021/11/22 17:11:14;;;;;;;72.25;41.50;;;;;;;4.92;100.00;99175.75;2171536;81;20958;-86
2021/11/22 17:14:15;;;;;;;81.32;44.95;;;;;;;4.89;100.00;99185.59;2171073;81;21014;-86
2021/11/22 17:17:16;;;;;;;86.30;47.10;;;;;;;4.80;100.00;99185.90;2171096;81;20970;-86
2021/11/22 17:20:17;;;;;;;86.85;50.33;;;;;;;4.76;100.00;99186.65;2171010;81;21038;-86
2021/11/22 17:23:18;;;;;;;94.25;55.17;;;;;;;4.75;100.00;99199.72;2171143;81;21056;-87
2021/11/22 17:26:19;;;;;;;103.70;57.17;;;;;;;4.75;100.00;99197.12;2171273;81;21062;-86
2021/11/22 17:29:20;;;;;;;99.20;57.13;;;;;;;4.69;100.00;99202.86;2171401;81;21504;-86
2021/11/22 17:32:20;;;;;;;103.75;57.50;;;;;;;4.65;100.00;99198.39;2171055;81;21025;-86
2021/11/22 17:35:21;;;;;;;109.67;58.45;;;;;;;4.65;100.00;99207.94;2171275;82;21006;-85
2021/11/22 17:38:24;;;;;;;95.70;53.95;;;;;;;4.67;100.00;99212.55;2173211;81;21049;-86
2021/11/22 17:41:26;;;;;;;103.83;55.95;;;;;;;4.70;100.00;99211.80;2171430;81;21501;-85
2021/11/22 17:44:27;;;;;;;166.07;78.85;;;;;;;4.74;100.00;99221.43;2170847;82;21250;-86
2021/11/22 17:47:28;;;;;;;129.55;70.62;;;;;;;4.74;100.00;99220.95;2166221;81;22107;-84
2021/11/22 17:50:29;;;;;;;118.50;67.50;;;;;;;4.70;100.00;99232.55;2166156;82;21009;-79
2021/11/22 17:53:30;;;;;;;116.65;62.55;;;;;;;4.68;100.00;99237.06;2164759;82;21476;-87
2021/11/22 17:56:31;;;;;;;107.60;60.15;;;;;;;4.72;100.00;99237.61;2164084;82;21064;-85
2021/11/22 17:59:33;;;;;;;102.58;57.00;;;;;;;4.76;100.00;99235.12;2163965;82;21008;-89
2021/11/22 18:02:34;;;;;;;75.45;44.53;;;;;;;4.77;100.00;99241.95;2164550;82;22070;-86
2021/11/22 18:05:34;;;;;;;68.28;40.73;;;;;;;4.77;100.00;99241.47;2164286;82;21001;-85
2021/11/22 18:08:35;;;;;;;73.67;41.75;;;;;;;4.76;100.00;99249.39;2165078;82;21409;-90
2021/11/22 18:11:36;;;;;;;77.03;43.45;;;;;;;4.75;100.00;99258.09;2163905;82;21470;-87
2021/11/22 18:14:37;;;;;;;80.53;43.52;;;;;;;4.76;100.00;99257.99;2163653;82;21080;-86
2021/11/22 18:17:38;;;;;;;81.22;44.75;;;;;;;4.74;100.00;99267.66;2163542;82;21009;-87
2021/11/22 18:20:39;;;;;;;75.20;44.35;;;;;;;4.77;100.00;99262.23;2163572;82;21042;-90
2021/11/22 18:23:39;;;;;;;74.35;41.00;;;;;;;4.79;100.00;99272.47;2163983;82;21005;-90
2021/11/22 18:26:40;;;;;;;63.50;37.10;;;;;;;4.78;100.00;99269.05;2165087;82;21068;-88
2021/11/22 18:29:41;;;;;;;53.70;31.85;;;;;;;4.79;100.00;99272.47;2173423;82;20981;-91
2021/11/22 18:32:42;;;;;;;42.50;27.60;;;;;;;4.77;100.00;99270.02;2173770;82;20992;-89
2021/11/22 18:35:43;;;;;;;43.10;28.27;;;;;;;4.76;100.00;99277.93;2173796;82;20946;-83
2021/11/22 18:38:44;;;;;;;35.28;23.40;;;;;;;4.78;100.00;99279.91;2173812;82;20965;-88
2021/11/22 18:41:45;;;;;;;30.43;20.68;;;;;;;4.74;100.00;99284.99;2173546;82;20965;-87
2021/11/22 18:44:46;;;;;;;33.20;20.40;;;;;;;4.69;100.00;99284.58;2173928;82;21036;-88
2021/11/22 18:47:47;;;;;;;23.38;16.90;;;;;;;4.63;100.00;99296.27;2173732;82;21112;-89
2021/11/22 18:50:48;;;;;;;24.40;18.23;;;;;;;4.56;100.00;99296.42;2173202;82;21100;-85
2021/11/22 18:53:49;;;;;;;20.92;15.05;;;;;;;4.49;100.00;99303.91;2173259;82;21030;-87
2021/11/22 18:56:51;;;;;;;21.02;16.70;;;;;;;4.37;100.00;99302.78;2172994;82;21053;-88
2021/11/22 18:59:52;;;;;;;25.40;15.72;;;;;;;4.27;100.00;99298.35;2172889;82;21059;-89
2021/11/22 19:02:54;;;;;;;26.35;15.03;;;;;;;4.20;100.00;99301.56;2142601;82;21491;-89
2021/11/22 19:05:55;;;;;;;22.55;16.15;;;;;;;4.11;100.00;99315.27;2173260;82;20981;-89
2021/11/22 19:08:56;;;;;;;20.40;15.23;;;;;;;4.04;100.00;99320.62;2173593;82;21571;-89
2021/11/22 19:11:57;;;;;;;26.45;17.12;;;;;;;3.94;100.00;99325.24;2173314;82;20996;-89
2021/11/22 19:14:58;;;;;;;25.85;16.97;;;;;;;3.84;100.00;99323.03;2173321;82;21064;-88
2021/11/22 19:17:59;;;;;;;19.70;14.05;;;;;;;3.72;100.00;99325.28;2173274;82;21476;-88
2021/11/22 19:21:01;;;;;;;18.37;14.60;;;;;;;3.60;100.00;99336.14;2173118;82;21032;-89
2021/11/22 19:24:02;;;;;;;21.42;14.15;;;;;;;3.52;100.00;99337.20;2173341;82;20953;-88
2021/11/22 19:27:03;;;;;;;15.98;13.65;;;;;;;3.48;100.00;99342.76;2173146;82;21081;-88
2021/11/22 19:30:04;;;;;;;20.57;14.68;;;;;;;3.42;100.00;99349.22;2173140;82;21024;-88
2021/11/22 19:33:06;;;;;;;24.50;15.60;;;;;;;3.33;100.00;99349.45;2172391;82;21044;-89
2021/11/22 19:36:07;;;;;;;16.67;13.20;;;;;;;3.28;100.00;99356.73;2173195;82;21041;-88
2021/11/22 19:39:08;;;;;;;17.98;13.50;;;;;;;3.20;100.00;99359.12;2173551;82;21072;-89
2021/11/22 19:42:09;;;;;;;18.65;12.95;;;;;;;3.14;100.00;99352.64;2173310;82;20957;-88
2021/11/22 19:45:10;;;;;;;17.52;13.40;;;;;;;3.09;100.00;99356.50;2173123;82;21096;-88
2021/11/22 19:48:11;;;;;;;22.32;15.50;;;;;;;3.03;100.00;99358.28;2173290;82;21524;-90
2021/11/22 19:51:13;;;;;;;24.63;15.70;;;;;;;2.96;100.00;99359.67;2173385;82;21417;-89
2021/11/22 19:54:15;;;;;;;22.40;15.28;;;;;;;2.91;100.00;99366.94;2173276;82;21506;-89
2021/11/22 19:57:21;;;;;;;25.35;16.32;;;;;;;2.87;100.00;99366.83;2173455;82;21096;-89
2021/11/22 20:00:19;;;;;;;28.77;17.82;;;;;;;2.80;100.00;99372.45;2173610;82;21040;-90
2021/11/22 20:03:19;;;;;;;30.02;19.42;;;;;;;2.78;100.00;99370.92;2173188;82;20973;-90
2021/11/22 20:06:20;;;;;;;29.40;19.27;;;;;;;2.74;100.00;99374.66;2173281;82;21036;-89
2021/11/22 20:09:21;;;;;;;24.77;17.27;;;;;;;2.68;100.00;99380.30;2173405;82;20969;-88
2021/11/22 20:12:23;;;;;;;28.73;18.23;;;;;;;2.65;100.00;99379.22;2173091;82;21012;-88
2021/11/22 20:15:24;;;;;;;37.23;21.70;;;;;;;2.60;100.00;99384.74;2173198;82;21041;-89
2021/11/22 20:18:25;;;;;;;46.37;24.45;;;;;;;2.58;100.00;99384.03;2173142;82;20985;-87
2021/11/22 20:21:25;;;;;;;49.85;26.77;;;;;;;2.54;100.00;99376.95;2173288;82;20985;-86
2021/11/22 20:24:26;;;;;;;44.33;27.45;;;;;;;2.49;100.00;99383.42;2173065;82;21071;-87
2021/11/22 20:27:27;;;;;;;55.03;28.35;;;;;;;2.43;100.00;99385.14;2173232;82;21017;-85
2021/11/22 20:30:29;;;;;;;48.17;27.98;;;;;;;2.37;100.00;99387.70;2173642;82;21056;-87
2021/11/22 20:33:30;;;;;;;55.78;30.10;;;;;;;2.35;100.00;99395.21;2173085;82;21056;-86
2021/11/22 20:36:32;;;;;;;69.37;38.13;;;;;;;2.27;100.00;99395.30;2173198;82;20981;-86
2021/11/22 20:39:34;;;;;;;76.00;39.42;;;;;;;2.21;100.00;99392.34;2143847;82;21049;-86
2021/11/22 20:42:35;;;;;;;86.32;45.28;;;;;;;2.18;100.00;99399.83;2172992;82;21037;-87
2021/11/22 20:45:36;;;;;;;115.12;54.30;;;;;;;2.07;100.00;99408.81;2173256;82;21075;-85
2021/11/22 20:48:37;;;;;;;90.03;49.00;;;;;;;2.00;100.00;99400.67;2173036;82;20989;-85
2021/11/22 20:51:38;;;;;;;91.65;45.95;;;;;;;1.99;100.00;99411.11;2173426;82;21068;-88
2021/11/22 20:54:39;;;;;;;80.77;42.23;;;;;;;1.97;100.00;99415.56;2173878;82;20957;-89
2021/11/22 20:57:41;;;;;;;81.87;42.35;;;;;;;1.85;100.00;99409.98;2143674;82;21316;-85
2021/11/22 21:00:44;;;;;;;92.02;45.65;;;;;;;1.79;100.00;99403.95;2173175;82;21057;-83
2021/11/22 21:03:45;;;;;;;78.55;38.95;;;;;;;1.71;100.00;99404.00;2173112;82;21036;-84
2021/11/22 21:06:46;;;;;;;83.17;42.27;;;;;;;1.67;100.00;99396.12;2173239;82;21040;-84
2021/11/22 21:09:48;;;;;;;74.70;45.48;;;;;;;1.65;100.00;99402.34;2173188;82;21012;-84
2021/11/22 21:12:48;;;;;;;76.65;38.05;;;;;;;1.65;100.00;99408.79;2173285;82;21007;-84
2021/11/22 21:15:50;;;;;;;59.50;30.43;;;;;;;1.65;100.00;99412.20;2173226;82;21025;-84
2021/11/22 21:18:51;;;;;;;44.20;25.05;;;;;;;1.62;100.00;99408.98;2173147;82;21524;-83
2021/11/22 21:21:52;;;;;;;40.83;22.17;;;;;;;1.58;100.00;99413.55;2173233;82;20997;-83
2021/11/22 21:24:53;;;;;;;30.08;18.98;;;;;;;1.57;100.00;99413.66;2172981;82;21013;-83
2021/11/22 21:27:54;;;;;;;27.58;18.17;;;;;;;1.53;100.00;99420.77;2169973;82;21116;-82
2021/11/22 21:30:55;;;;;;;27.90;18.52;;;;;;;1.53;100.00;99424.63;2163283;82;20984;-83
2021/11/22 21:34:01;;;;;;;35.23;20.37;;;;;;;1.57;100.00;99431.72;2163214;82;21069;-83
2021/11/22 21:37:01;;;;;;;40.98;24.32;;;;;;;1.62;100.00;99434.80;2163318;82;21049;-83
2021/11/22 21:40:02;;;;;;;38.13;23.27;;;;;;;1.69;100.00;99442.02;2163138;82;21573;-83
2021/11/22 21:43:05;;;;;;;32.45;19.45;;;;;;;1.79;100.00;99448.67;2163352;82;20982;-83
2021/11/22 21:46:05;;;;;;;32.70;19.73;;;;;;;1.84;100.00;99457.41;2163260;82;21046;-83
2021/11/22 21:49:06;;;;;;;22.45;16.27;;;;;;;1.92;100.00;99458.96;2163281;82;21033;-82
2021/11/22 21:52:07;;;;;;;27.90;18.37;;;;;;;1.99;100.00;99459.72;2163254;82;21549;-83
2021/11/22 21:55:08;;;;;;;26.35;17.27;;;;;;;2.05;100.00;99467.52;2163181;82;20969;-84
2021/11/22 21:58:09;;;;;;;27.50;17.45;;;;;;;2.10;100.00;99463.31;2163561;82;20954;-83
2021/11/22 22:01:10;;;;;;;29.30;18.77;;;;;;;2.14;100.00;99473.81;2163308;82;20982;-83
2021/11/22 22:04:11;;;;;;;36.05;20.88;;;;;;;2.22;100.00;99469.75;2163180;82;21045;-83
2021/11/22 22:07:12;;;;;;;37.25;20.50;;;;;;;2.26;100.00;99466.00;2163400;82;21051;-84
2021/11/22 22:10:13;;;;;;;42.83;24.12;;;;;;;2.28;100.00;99465.89;2163231;82;21003;-83
2021/11/22 22:13:15;;;;;;;105.95;40.63;;;;;;;2.27;100.00;99472.00;2163319;82;20942;-83
2021/11/22 22:16:15;;;;;;;49.35;25.95;;;;;;;2.30;100.00;99460.64;2163272;82;20978;-83
2021/11/22 22:19:16;;;;;;;45.43;22.85;;;;;;;2.35;100.00;99470.17;2163324;82;21134;-83
2021/11/22 22:22:17;;;;;;;43.83;24.05;;;;;;;2.30;100.00;99476.14;2163278;82;20982;-83
2021/11/22 22:25:18;;;;;;;41.92;23.20;;;;;;;2.28;100.00;99480.11;2163132;82;21032;-83
2021/11/22 22:28:19;;;;;;;38.90;22.58;;;;;;;2.33;100.00;99474.63;2163006;82;20966;-83
2021/11/22 22:31:20;;;;;;;41.90;22.35;;;;;;;2.34;100.00;99484.03;2163337;82;20986;-83
2021/11/22 22:34:20;;;;;;;39.38;23.02;;;;;;;2.34;100.00;99483.55;2163315;82;21036;-83
2021/11/22 22:37:21;;;;;;;35.80;21.07;;;;;;;2.37;100.00;99483.80;2163576;82;20979;-83
2021/11/22 22:40:22;;;;;;;39.90;21.57;;;;;;;2.38;100.00;99488.89;2163334;82;21037;-83
2021/11/22 22:43:26;;;;;;;36.83;23.10;;;;;;;2.37;100.00;99483.80;2163436;82;20965;-83
2021/11/22 22:46:25;;;;;;;35.08;22.58;;;;;;;2.36;100.00;99485.56;2163246;82;21093;-83
2021/11/22 22:49:26;;;;;;;34.03;20.43;;;;;;;2.39;100.00;99485.36;2163363;82;21049;-82
2021/11/22 22:52:27;;;;;;;35.85;22.65;;;;;;;2.44;100.00;99485.84;2163587;82;21524;-83
2021/11/22 22:55:28;;;;;;;36.15;21.87;;;;;;;2.47;100.00;99474.02;2163423;82;21004;-83
2021/11/22 22:58:29;;;;;;;34.53;18.73;;;;;;;2.51;100.00;99481.89;2163408;82;21013;-83
2021/11/22 23:01:30;;;;;;;31.87;19.92;;;;;;;2.49;100.00;99481.19;2163344;82;20993;-83
2021/11/22 23:04:31;;;;;;;31.45;20.60;;;;;;;2.49;100.00;99482.48;2163162;82;21587;-83
2021/11/22 23:07:32;;;;;;;31.55;20.43;;;;;;;2.48;100.00;99478.72;2163253;82;21062;-83
2021/11/22 23:10:33;;;;;;;34.18;20.08;;;;;;;2.48;100.00;99480.83;2163398;82;21004;-83
2021/11/22 23:13:33;;;;;;;28.67;19.37;;;;;;;2.48;100.00;99480.01;2163412;82;20954;-83
2021/11/22 23:16:34;;;;;;;26.87;18.52;;;;;;;2.45;100.00;99478.45;2163428;82;21052;-83
2021/11/22 23:19:36;;;;;;;28.32;18.80;;;;;;;2.48;100.00;99471.78;2163339;82;21444;-83